sensor_id;sensor_type;location;lat;lon;timestamp;temperature;humidity
4677;DHT22;2352;48.180;11.478;2024-03-23T00:53:50;12.40;61.10
4677;DHT22;2352;48.180;11.478;2024-03-23T00:58:51;12.30;60.70
4677;DHT22;2352;48.180;11.478;2024-03-23T01:03:52;12.30;61.00
4677;DHT22;2352;48.180;11.478;2024-03-23T01:08:53;12.30;60.50
4677;DHT22;2352;48.180;11.478;2024-03-23T01:13:54;12.30;60.00
4677;DHT22;2352;48.180;11.478;2024-03-23T01:18:56;12.40;59.20
4677;DHT22;2352;48.180;11.478;2024-03-23T01:23:57;12.20;60.50
4677;DHT22;2352;48.180;11.478;2024-03-23T01:28:58;12.20;60.40
4677;DHT22;2352;48.180;11.478;2024-03-23T01:33:58;12.20;60.00
4677;DHT22;2352;48.180;11.478;2024-03-23T01:38:59;12.10;60.50
4677;DHT22;2352;48.180;11.478;2024-03-23T01:44:04;12.10;60.60
4677;DHT22;2352;48.180;11.478;2024-03-23T01:49:05;12.10;60.50
4677;DHT22;2352;48.180;11.478;2024-03-23T01:54:07;12.00;60.90
4677;DHT22;2352;48.180;11.478;2024-03-23T01:59:08;11.90;61.10
4677;DHT22;2352;48.180;11.478;2024-03-23T02:04:09;11.90;60.70
4677;DHT22;2352;48.180;11.478;2024-03-23T02:09:10;11.90;60.20
4677;DHT22;2352;48.180;11.478;2024-03-23T02:14:11;11.90;61.00
4677;DHT22;2352;48.180;11.478;2024-03-23T02:19:11;11.70;61.10
4677;DHT22;2352;48.180;11.478;2024-03-23T02:24:12;11.70;61.20
4677;DHT22;2352;48.180;11.478;2024-03-23T02:29:13;11.60;61.60
4677;DHT22;2352;48.180;11.478;2024-03-23T02:34:14;11.50;61.70
4677;DHT22;2352;48.180;11.478;2024-03-23T02:39:15;11.50;61.60
4677;DHT22;2352;48.180;11.478;2024-03-23T02:44:15;11.40;61.90
4677;DHT22;2352;48.180;11.478;2024-03-23T02:49:16;11.30;62.30
4677;DHT22;2352;48.180;11.478;2024-03-23T02:54:17;11.40;62.10
4677;DHT22;2352;48.180;11.478;2024-03-23T02:59:18;11.20;62.20
4677;DHT22;2352;48.180;11.478;2024-03-23T03:04:18;11.10;62.50
4677;DHT22;2352;48.180;11.478;2024-03-23T03:09:19;11.50;61.30
4677;DHT22;2352;48.180;11.478;2024-03-23T03:14:20;11.40;61.90
4677;DHT22;2352;48.180;11.478;2024-03-23T03:19:21;11.50;61.70
4677;DHT22;2352;48.180;11.478;2024-03-23T03:24:22;11.80;60.80
4677;DHT22;2352;48.180;11.478;2024-03-23T03:29:23;12.00;60.20
4677;DHT22;2352;48.180;11.478;2024-03-23T03:34:23;11.90;60.30
4677;DHT22;2352;48.180;11.478;2024-03-23T03:39:24;11.90;60.40
4677;DHT22;2352;48.180;11.478;2024-03-23T03:44:25;11.90;60.90
4677;DHT22;2352;48.180;11.478;2024-03-23T03:49:26;11.80;61.60
4677;DHT22;2352;48.180;11.478;2024-03-23T03:54:26;11.90;61.30
4677;DHT22;2352;48.180;11.478;2024-03-23T03:59:27;12.00;60.80
4677;DHT22;2352;48.180;11.478;2024-03-23T04:04:28;12.00;60.90
4677;DHT22;2352;48.180;11.478;2024-03-23T04:09:29;11.90;61.10
4677;DHT22;2352;48.180;11.478;2024-03-23T04:14:30;11.90;61.50
4677;DHT22;2352;48.180;11.478;2024-03-23T04:19:31;11.80;61.80
4677;DHT22;2352;48.180;11.478;2024-03-23T04:24:32;11.90;61.30
4677;DHT22;2352;48.180;11.478;2024-03-23T04:29:33;11.80;61.60
4677;DHT22;2352;48.180;11.478;2024-03-23T04:34:33;11.90;61.00
4677;DHT22;2352;48.180;11.478;2024-03-23T04:39:38;11.80;61.20
4677;DHT22;2352;48.180;11.478;2024-03-23T04:44:39;11.90;61.00
4677;DHT22;2352;48.180;11.478;2024-03-23T04:49:40;12.00;60.80
4677;DHT22;2352;48.180;11.478;2024-03-23T04:54:41;12.00;60.80
4677;DHT22;2352;48.180;11.478;2024-03-23T04:59:42;11.90;60.90
4677;DHT22;2352;48.180;11.478;2024-03-23T05:04:42;12.00;60.70
4677;DHT22;2352;48.180;11.478;2024-03-23T05:09:43;12.00;60.60
4677;DHT22;2352;48.180;11.478;2024-03-23T05:14:44;12.10;60.20
4677;DHT22;2352;48.180;11.478;2024-03-23T05:19:45;12.10;60.20
4677;DHT22;2352;48.180;11.478;2024-03-23T05:24:46;12.10;60.30
4677;DHT22;2352;48.180;11.478;2024-03-23T05:29:47;12.10;59.70
4677;DHT22;2352;48.180;11.478;2024-03-23T05:34:48;12.10;59.70
4677;DHT22;2352;48.180;11.478;2024-03-23T05:39:51;12.20;59.30
4677;DHT22;2352;48.180;11.478;2024-03-23T05:44:52;12.40;58.50
4677;DHT22;2352;48.180;11.478;2024-03-23T05:49:52;12.30;58.70
4677;DHT22;2352;48.180;11.478;2024-03-23T05:54:53;12.40;58.60
4677;DHT22;2352;48.180;11.478;2024-03-23T05:59:54;12.40;58.60
4677;DHT22;2352;48.180;11.478;2024-03-23T06:04:55;12.40;58.40
4677;DHT22;2352;48.180;11.478;2024-03-23T06:09:56;12.50;58.40
4677;DHT22;2352;48.180;11.478;2024-03-23T06:14:58;12.70;58.20
4677;DHT22;2352;48.180;11.478;2024-03-23T06:19:58;12.70;58.30
4677;DHT22;2352;48.180;11.478;2024-03-23T06:24:59;12.90;58.30
4677;DHT22;2352;48.180;11.478;2024-03-23T06:30:00;13.20;58.10
4677;DHT22;2352;48.180;11.478;2024-03-23T06:35:01;13.30;57.60
4677;DHT22;2352;48.180;11.478;2024-03-23T06:40:08;13.40;57.70
4677;DHT22;2352;48.180;11.478;2024-03-23T06:45:10;13.40;57.00
4677;DHT22;2352;48.180;11.478;2024-03-23T06:50:11;13.50;56.50
4677;DHT22;2352;48.180;11.478;2024-03-23T06:55:12;13.70;55.80
4677;DHT22;2352;48.180;11.478;2024-03-23T07:00:13;13.90;56.10
4677;DHT22;2352;48.180;11.478;2024-03-23T07:05:16;14.10;55.40
4677;DHT22;2352;48.180;11.478;2024-03-23T07:10:17;14.20;55.10
4677;DHT22;2352;48.180;11.478;2024-03-23T07:15:18;14.40;55.20
4677;DHT22;2352;48.180;11.478;2024-03-23T07:20:19;14.40;55.80
4677;DHT22;2352;48.180;11.478;2024-03-23T07:25:20;14.60;56.80
4677;DHT22;2352;48.180;11.478;2024-03-23T07:30:22;14.80;57.10
4677;DHT22;2352;48.180;11.478;2024-03-23T07:35:23;14.70;57.70
4677;DHT22;2352;48.180;11.478;2024-03-23T07:40:23;14.60;58.40
4677;DHT22;2352;48.180;11.478;2024-03-23T07:45:24;14.40;63.80
4677;DHT22;2352;48.180;11.478;2024-03-23T07:50:25;13.80;63.80
4677;DHT22;2352;48.180;11.478;2024-03-23T07:55:26;13.30;65.90
4677;DHT22;2352;48.180;11.478;2024-03-23T08:00:27;13.00;67.60
4677;DHT22;2352;48.180;11.478;2024-03-23T08:05:28;12.70;69.20
4677;DHT22;2352;48.180;11.478;2024-03-23T08:10:28;12.40;69.80
4677;DHT22;2352;48.180;11.478;2024-03-23T08:15:32;12.30;70.70
4677;DHT22;2352;48.180;11.478;2024-03-23T08:20:36;12.10;71.40
4677;DHT22;2352;48.180;11.478;2024-03-23T08:25:37;12.10;72.50
4677;DHT22;2352;48.180;11.478;2024-03-23T08:30:37;11.80;71.80
4677;DHT22;2352;48.180;11.478;2024-03-23T08:35:38;11.60;71.90
4677;DHT22;2352;48.180;11.478;2024-03-23T08:40:39;11.10;72.90
4677;DHT22;2352;48.180;11.478;2024-03-23T08:45:40;11.20;72.30
4677;DHT22;2352;48.180;11.478;2024-03-23T08:50:41;11.10;73.20
4677;DHT22;2352;48.180;11.478;2024-03-23T08:55:41;11.40;72.30
4677;DHT22;2352;48.180;11.478;2024-03-23T09:00:42;11.40;71.80
4677;DHT22;2352;48.180;11.478;2024-03-23T09:05:43;11.20;72.50
4677;DHT22;2352;48.180;11.478;2024-03-23T09:10:46;10.90;73.00
4677;DHT22;2352;48.180;11.478;2024-03-23T09:15:51;10.90;73.30
4677;DHT22;2352;48.180;11.478;2024-03-23T09:20:56;10.90;73.70
4677;DHT22;2352;48.180;11.478;2024-03-23T09:25:57;10.90;74.20
4677;DHT22;2352;48.180;11.478;2024-03-23T09:31:05;11.10;73.80
4677;DHT22;2352;48.180;11.478;2024-03-23T09:36:06;11.00;74.20
4677;DHT22;2352;48.180;11.478;2024-03-23T09:41:08;11.10;74.10
4677;DHT22;2352;48.180;11.478;2024-03-23T09:46:09;11.10;73.30
4677;DHT22;2352;48.180;11.478;2024-03-23T09:51:10;10.70;71.80
4677;DHT22;2352;48.180;11.478;2024-03-23T09:56:11;10.40;71.00
4677;DHT22;2352;48.180;11.478;2024-03-23T10:01:12;10.20;72.80
4677;DHT22;2352;48.180;11.478;2024-03-23T10:06:12;10.30;73.50
4677;DHT22;2352;48.180;11.478;2024-03-23T10:11:15;10.40;72.50
4677;DHT22;2352;48.180;11.478;2024-03-23T10:16:24;10.10;71.30
4677;DHT22;2352;48.180;11.478;2024-03-23T10:21:24;9.70;72.40
4677;DHT22;2352;48.180;11.478;2024-03-23T10:26:25;9.80;73.10
4677;DHT22;2352;48.180;11.478;2024-03-23T10:31:27;9.80;73.20
4677;DHT22;2352;48.180;11.478;2024-03-23T10:36:29;10.20;72.50
4677;DHT22;2352;48.180;11.478;2024-03-23T10:41:32;10.20;72.20
4677;DHT22;2352;48.180;11.478;2024-03-23T10:46:33;10.00;71.40
4677;DHT22;2352;48.180;11.478;2024-03-23T10:51:33;9.70;71.60
4677;DHT22;2352;48.180;11.478;2024-03-23T10:56:36;9.70;70.70
4677;DHT22;2352;48.180;11.478;2024-03-23T11:01:54;9.50;70.20
4677;DHT22;2352;48.180;11.478;2024-03-23T11:06:55;9.40;70.40
4677;DHT22;2352;48.180;11.478;2024-03-23T11:11:56;9.50;70.70
4677;DHT22;2352;48.180;11.478;2024-03-23T11:17:09;9.60;70.40
4677;DHT22;2352;48.180;11.478;2024-03-23T11:22:10;9.80;70.70
4677;DHT22;2352;48.180;11.478;2024-03-23T11:27:17;9.60;70.20
4677;DHT22;2352;48.180;11.478;2024-03-23T11:32:18;9.70;69.20
4677;DHT22;2352;48.180;11.478;2024-03-23T11:37:19;9.70;68.80
4677;DHT22;2352;48.180;11.478;2024-03-23T11:42:19;9.70;66.90
4677;DHT22;2352;48.180;11.478;2024-03-23T11:47:22;9.80;66.60
4677;DHT22;2352;48.180;11.478;2024-03-23T11:52:23;9.70;66.10
4677;DHT22;2352;48.180;11.478;2024-03-23T11:57:23;9.70;66.90
4677;DHT22;2352;48.180;11.478;2024-03-23T12:02:24;9.90;66.40
4677;DHT22;2352;48.180;11.478;2024-03-23T12:07:25;9.90;64.70
4677;DHT22;2352;48.180;11.478;2024-03-23T12:12:26;9.90;65.30
4677;DHT22;2352;48.180;11.478;2024-03-23T12:17:27;9.50;65.00
4677;DHT22;2352;48.180;11.478;2024-03-23T12:22:28;9.60;65.80
4677;DHT22;2352;48.180;11.478;2024-03-23T12:27:30;9.80;62.60
4677;DHT22;2352;48.180;11.478;2024-03-23T12:32:30;9.80;60.80
4677;DHT22;2352;48.180;11.478;2024-03-23T12:37:31;9.80;60.90
4677;DHT22;2352;48.180;11.478;2024-03-23T12:42:32;9.80;60.50
4677;DHT22;2352;48.180;11.478;2024-03-23T12:47:33;10.10;60.80
4677;DHT22;2352;48.180;11.478;2024-03-23T12:52:33;10.30;60.10
4677;DHT22;2352;48.180;11.478;2024-03-23T12:57:34;10.00;61.10
4677;DHT22;2352;48.180;11.478;2024-03-23T13:02:35;10.20;60.30
4677;DHT22;2352;48.180;11.478;2024-03-23T13:07:36;10.30;60.70
4677;DHT22;2352;48.180;11.478;2024-03-23T13:12:38;10.40;60.40
4677;DHT22;2352;48.180;11.478;2024-03-23T13:17:38;10.40;59.80
4677;DHT22;2352;48.180;11.478;2024-03-23T13:22:40;10.20;59.50
4677;DHT22;2352;48.180;11.478;2024-03-23T13:27:40;10.10;58.30
4677;DHT22;2352;48.180;11.478;2024-03-23T13:32:41;10.10;58.40
4677;DHT22;2352;48.180;11.478;2024-03-23T13:37:42;10.00;58.30
4677;DHT22;2352;48.180;11.478;2024-03-23T13:42:43;10.20;58.20
4677;DHT22;2352;48.180;11.478;2024-03-23T13:47:44;10.20;59.70
4677;DHT22;2352;48.180;11.478;2024-03-23T13:52:45;10.10;60.70
4677;DHT22;2352;48.180;11.478;2024-03-23T13:57:45;9.60;63.40
4677;DHT22;2352;48.180;11.478;2024-03-23T14:02:46;8.60;66.80
4677;DHT22;2352;48.180;11.478;2024-03-23T14:07:47;8.60;67.00
4677;DHT22;2352;48.180;11.478;2024-03-23T14:12:48;8.60;67.60
4677;DHT22;2352;48.180;11.478;2024-03-23T14:17:50;8.80;67.60
4677;DHT22;2352;48.180;11.478;2024-03-23T14:22:52;8.90;66.70
4677;DHT22;2352;48.180;11.478;2024-03-23T14:27:53;8.90;66.70
4677;DHT22;2352;48.180;11.478;2024-03-23T14:32:53;8.60;60.70
4677;DHT22;2352;48.180;11.478;2024-03-23T14:37:54;8.70;61.10
4677;DHT22;2352;48.180;11.478;2024-03-23T14:42:55;8.50;61.20
4677;DHT22;2352;48.180;11.478;2024-03-23T14:47:56;8.80;59.80
4677;DHT22;2352;48.180;11.478;2024-03-23T14:52:58;8.50;59.90
4677;DHT22;2352;48.180;11.478;2024-03-23T14:57:59;8.60;58.90
4677;DHT22;2352;48.180;11.478;2024-03-23T15:03:00;8.80;58.20
4677;DHT22;2352;48.180;11.478;2024-03-23T15:08:02;8.60;59.10
4677;DHT22;2352;48.180;11.478;2024-03-23T15:13:03;8.40;59.30
4677;DHT22;2352;48.180;11.478;2024-03-23T15:18:04;8.50;59.80
4677;DHT22;2352;48.180;11.478;2024-03-23T15:23:05;8.50;60.70
4677;DHT22;2352;48.180;11.478;2024-03-23T15:28:06;8.40;61.20
4677;DHT22;2352;48.180;11.478;2024-03-23T15:33:07;8.20;62.50
4677;DHT22;2352;48.180;11.478;2024-03-23T15:38:08;8.50;62.90
4677;DHT22;2352;48.180;11.478;2024-03-23T15:43:10;8.70;62.90
4677;DHT22;2352;48.180;11.478;2024-03-23T15:48:10;8.70;62.20
4677;DHT22;2352;48.180;11.478;2024-03-23T15:53:11;8.70;62.80
4677;DHT22;2352;48.180;11.478;2024-03-23T15:58:12;8.80;63.10
4677;DHT22;2352;48.180;11.478;2024-03-23T16:03:13;8.90;63.50
4677;DHT22;2352;48.180;11.478;2024-03-23T16:08:13;8.80;65.00
4677;DHT22;2352;48.180;11.478;2024-03-23T16:13:16;8.80;64.80
4677;DHT22;2352;48.180;11.478;2024-03-23T16:18:16;8.90;64.00
4677;DHT22;2352;48.180;11.478;2024-03-23T16:23:17;8.70;64.90
4677;DHT22;2352;48.180;11.478;2024-03-23T16:28:18;8.70;64.70
4677;DHT22;2352;48.180;11.478;2024-03-23T16:33:19;8.70;65.30
4677;DHT22;2352;48.180;11.478;2024-03-23T16:38:19;8.70;65.30
4677;DHT22;2352;48.180;11.478;2024-03-23T16:43:20;8.70;64.40
4677;DHT22;2352;48.180;11.478;2024-03-23T16:48:22;8.60;64.20
4677;DHT22;2352;48.180;11.478;2024-03-23T16:53:23;8.60;64.90
4677;DHT22;2352;48.180;11.478;2024-03-23T16:58:30;8.40;65.00
4677;DHT22;2352;48.180;11.478;2024-03-23T17:03:31;8.60;65.20
4677;DHT22;2352;48.180;11.478;2024-03-23T17:08:32;8.90;64.70
4677;DHT22;2352;48.180;11.478;2024-03-23T17:13:34;8.80;65.20
4677;DHT22;2352;48.180;11.478;2024-03-23T17:18:35;8.60;66.10
4677;DHT22;2352;48.180;11.478;2024-03-23T17:23:36;8.50;64.60
4677;DHT22;2352;48.180;11.478;2024-03-23T17:28:36;8.00;63.90
4677;DHT22;2352;48.180;11.478;2024-03-23T17:33:37;7.70;64.80
4677;DHT22;2352;48.180;11.478;2024-03-23T17:38:38;6.80;67.70
4677;DHT22;2352;48.180;11.478;2024-03-23T17:43:39;6.60;67.90
4677;DHT22;2352;48.180;11.478;2024-03-23T17:48:39;6.60;68.90
4677;DHT22;2352;48.180;11.478;2024-03-23T17:53:41;6.70;69.20
4677;DHT22;2352;48.180;11.478;2024-03-23T17:58:41;6.80;69.20
4677;DHT22;2352;48.180;11.478;2024-03-23T18:03:42;6.60;69.30
4677;DHT22;2352;48.180;11.478;2024-03-23T18:08:43;6.80;69.60
4677;DHT22;2352;48.180;11.478;2024-03-23T18:13:44;6.90;68.70
4677;DHT22;2352;48.180;11.478;2024-03-23T18:18:45;6.70;68.60
4677;DHT22;2352;48.180;11.478;2024-03-23T18:23:47;6.10;69.70
4677;DHT22;2352;48.180;11.478;2024-03-23T18:28:51;6.00;70.70
4677;DHT22;2352;48.180;11.478;2024-03-23T18:33:52;6.00;70.80
4677;DHT22;2352;48.180;11.478;2024-03-23T18:38:54;6.10;70.70
4677;DHT22;2352;48.180;11.478;2024-03-23T18:43:56;6.10;70.70
4677;DHT22;2352;48.180;11.478;2024-03-23T18:48:58;5.90;70.70
4677;DHT22;2352;48.180;11.478;2024-03-23T18:54:01;5.50;71.70
4677;DHT22;2352;48.180;11.478;2024-03-23T18:59:02;5.50;72.30
4677;DHT22;2352;48.180;11.478;2024-03-23T19:04:03;5.80;72.20
4677;DHT22;2352;48.180;11.478;2024-03-23T19:09:04;5.90;70.80
4677;DHT22;2352;48.180;11.478;2024-03-23T19:14:05;5.90;71.10
4677;DHT22;2352;48.180;11.478;2024-03-23T19:19:06;6.00;71.00
4677;DHT22;2352;48.180;11.478;2024-03-23T19:24:07;6.00;71.00
4677;DHT22;2352;48.180;11.478;2024-03-23T19:29:08;6.10;71.50
4677;DHT22;2352;48.180;11.478;2024-03-23T19:34:09;6.10;71.50
4677;DHT22;2352;48.180;11.478;2024-03-23T19:39:09;6.20;71.50
4677;DHT22;2352;48.180;11.478;2024-03-23T19:44:12;6.30;72.00
4677;DHT22;2352;48.180;11.478;2024-03-23T19:49:13;6.30;72.30
4677;DHT22;2352;48.180;11.478;2024-03-23T19:54:14;6.30;72.80
4677;DHT22;2352;48.180;11.478;2024-03-23T19:59:15;6.40;71.80
4677;DHT22;2352;48.180;11.478;2024-03-23T20:04:15;6.40;71.50
4677;DHT22;2352;48.180;11.478;2024-03-23T20:09:16;6.50;71.50
4677;DHT22;2352;48.180;11.478;2024-03-23T20:14:17;6.60;72.00
4677;DHT22;2352;48.180;11.478;2024-03-23T20:19:18;6.50;71.80
4677;DHT22;2352;48.180;11.478;2024-03-23T20:24:19;6.60;71.70
4677;DHT22;2352;48.180;11.478;2024-03-23T20:29:20;6.60;71.00
4677;DHT22;2352;48.180;11.478;2024-03-23T20:34:20;6.40;71.90
4677;DHT22;2352;48.180;11.478;2024-03-23T20:39:21;6.60;70.60
4677;DHT22;2352;48.180;11.478;2024-03-23T20:44:22;6.30;71.40
4677;DHT22;2352;48.180;11.478;2024-03-23T20:49:23;6.40;69.90
4677;DHT22;2352;48.180;11.478;2024-03-23T20:54:24;6.40;69.10
4677;DHT22;2352;48.180;11.478;2024-03-23T20:59:24;6.40;69.10
4677;DHT22;2352;48.180;11.478;2024-03-23T21:04:25;6.20;69.00
4677;DHT22;2352;48.180;11.478;2024-03-23T21:09:26;6.20;68.90
4677;DHT22;2352;48.180;11.478;2024-03-23T21:14:27;5.90;68.50
4677;DHT22;2352;48.180;11.478;2024-03-23T21:19:28;5.80;69.30
4677;DHT22;2352;48.180;11.478;2024-03-23T21:24:29;5.80;69.50
4677;DHT22;2352;48.180;11.478;2024-03-23T21:29:29;5.80;69.50
4677;DHT22;2352;48.180;11.478;2024-03-23T21:34:30;5.80;69.50
4677;DHT22;2352;48.180;11.478;2024-03-23T21:39:31;5.90;69.10
4677;DHT22;2352;48.180;11.478;2024-03-23T21:44:32;5.80;69.40
4677;DHT22;2352;48.180;11.478;2024-03-23T21:49:32;5.70;69.70
4677;DHT22;2352;48.180;11.478;2024-03-23T21:54:33;5.40;70.80
4677;DHT22;2352;48.180;11.478;2024-03-23T21:59:35;5.40;70.60
4677;DHT22;2352;48.180;11.478;2024-03-23T22:04:36;5.40;70.30
4677;DHT22;2352;48.180;11.478;2024-03-23T22:09:37;5.30;70.40
4677;DHT22;2352;48.180;11.478;2024-03-23T22:14:38;5.30;70.40
4677;DHT22;2352;48.180;11.478;2024-03-23T22:19:38;5.20;70.50
4677;DHT22;2352;48.180;11.478;2024-03-23T22:24:39;5.10;70.70
4677;DHT22;2352;48.180;11.478;2024-03-23T22:29:40;5.00;71.00
4677;DHT22;2352;48.180;11.478;2024-03-23T22:34:41;4.90;71.20
4677;DHT22;2352;48.180;11.478;2024-03-23T22:39:42;5.10;70.80
4677;DHT22;2352;48.180;11.478;2024-03-23T22:44:43;5.20;70.20
4677;DHT22;2352;48.180;11.478;2024-03-23T22:49:44;5.20;69.90
4677;DHT22;2352;48.180;11.478;2024-03-23T22:54:44;5.10;70.20
4677;DHT22;2352;48.180;11.478;2024-03-23T22:59:45;5.20;70.10
4677;DHT22;2352;48.180;11.478;2024-03-23T23:04:46;5.20;70.00
4677;DHT22;2352;48.180;11.478;2024-03-23T23:09:49;5.30;70.20
4677;DHT22;2352;48.180;11.478;2024-03-23T23:14:50;5.30;70.10
4677;DHT22;2352;48.180;11.478;2024-03-23T23:19:50;5.20;70.00
4677;DHT22;2352;48.180;11.478;2024-03-23T23:24:51;5.30;70.10
4677;DHT22;2352;48.180;11.478;2024-03-23T23:29:52;5.40;70.10
4677;DHT22;2352;48.180;11.478;2024-03-23T23:34:53;5.40;70.40
4677;DHT22;2352;48.180;11.478;2024-03-23T23:39:53;5.40;71.00
4677;DHT22;2352;48.180;11.478;2024-03-23T23:44:55;5.40;70.70
4677;DHT22;2352;48.180;11.478;2024-03-23T23:49:56;5.70;69.90
4677;DHT22;2352;48.180;11.478;2024-03-23T23:54:57;5.50;70.20
4677;DHT22;2352;48.180;11.478;2024-03-23T23:59:58;5.40;70.10
